sensor_id;sensor_type;location;lat;lon;timestamp;temperature;humidity
19292;DHT22;9779;51.756;7.450;2023-07-16T00:00:32;21.10;99.90
19292;DHT22;9779;51.756;7.450;2023-07-16T00:05:24;20.90;99.90
19292;DHT22;9779;51.756;7.450;2023-07-16T00:07:49;20.90;99.90
19292;DHT22;9779;51.756;7.450;2023-07-16T00:10:15;20.80;1.00
19292;DHT22;9779;51.756;7.450;2023-07-16T00:12:41;20.80;1.00
19292;DHT22;9779;51.756;7.450;2023-07-16T00:15:07;20.70;1.00
19292;DHT22;9779;51.756;7.450;2023-07-16T00:17:33;20.70;1.00
19292;DHT22;9779;51.756;7.450;2023-07-16T00:19:59;20.70;1.00
19292;DHT22;9779;51.756;7.450;2023-07-16T00:22:25;20.70;1.00
19292;DHT22;9779;51.756;7.450;2023-07-16T00:24:50;20.60;1.00
19292;DHT22;9779;51.756;7.450;2023-07-16T00:27:16;20.60;19.50
19292;DHT22;9779;51.756;7.450;2023-07-16T00:29:42;20.60;1.00
19292;DHT22;9779;51.756;7.450;2023-07-16T00:32:07;20.60;99.90
19292;DHT22;9779;51.756;7.450;2023-07-16T00:34:33;20.60;99.90
19292;DHT22;9779;51.756;7.450;2023-07-16T00:36:59;20.60;99.90
19292;DHT22;9779;51.756;7.450;2023-07-16T00:39:29;20.50;99.90
19292;DHT22;9779;51.756;7.450;2023-07-16T01:29:38;20.00;1.00
19292;DHT22;9779;51.756;7.450;2023-07-16T01:32:06;19.90;1.00
19292;DHT22;9779;51.756;7.450;2023-07-16T01:34:34;19.90;1.00
19292;DHT22;9779;51.756;7.450;2023-07-16T01:37:03;19.90;1.00
19292;DHT22;9779;51.756;7.450;2023-07-16T01:39:31;20.00;1.00
19292;DHT22;9779;51.756;7.450;2023-07-16T01:41:58;19.80;1.00
19292;DHT22;9779;51.756;7.450;2023-07-16T01:44:23;19.90;1.00
19292;DHT22;9779;51.756;7.450;2023-07-16T01:47:03;19.90;1.00
19292;DHT22;9779;51.756;7.450;2023-07-16T01:49:30;19.70;1.00
19292;DHT22;9779;51.756;7.450;2023-07-16T01:51:56;19.80;1.00
19292;DHT22;9779;51.756;7.450;2023-07-16T01:54:21;19.70;1.00
19292;DHT22;9779;51.756;7.450;2023-07-16T01:56:47;19.90;1.00
19292;DHT22;9779;51.756;7.450;2023-07-16T01:59:12;19.70;1.00
19292;DHT22;9779;51.756;7.450;2023-07-16T02:01:38;19.60;1.00
19292;DHT22;9779;51.756;7.450;2023-07-16T02:04:04;19.80;1.00
19292;DHT22;9779;51.756;7.450;2023-07-16T02:06:29;19.60;1.00
19292;DHT22;9779;51.756;7.450;2023-07-16T02:08:55;19.60;1.00
19292;DHT22;9779;51.756;7.450;2023-07-16T02:11:20;19.60;1.00
19292;DHT22;9779;51.756;7.450;2023-07-16T02:13:46;19.60;1.00
19292;DHT22;9779;51.756;7.450;2023-07-16T02:16:12;19.50;1.00
19292;DHT22;9779;51.756;7.450;2023-07-16T02:18:37;19.40;1.00
19292;DHT22;9779;51.756;7.450;2023-07-16T02:21:03;19.40;1.00
19292;DHT22;9779;51.756;7.450;2023-07-16T02:23:29;19.40;1.00
19292;DHT22;9779;51.756;7.450;2023-07-16T02:25:54;19.30;1.00
19292;DHT22;9779;51.756;7.450;2023-07-16T02:28:20;19.30;1.00
19292;DHT22;9779;51.756;7.450;2023-07-16T02:30:45;19.30;1.00
19292;DHT22;9779;51.756;7.450;2023-07-16T02:33:11;19.10;1.00
19292;DHT22;9779;51.756;7.450;2023-07-16T02:35:37;19.10;14.50
19292;DHT22;9779;51.756;7.450;2023-07-16T02:38:03;19.00;24.50
19292;DHT22;9779;51.756;7.450;2023-07-16T02:40:28;19.00;34.40
19292;DHT22;9779;51.756;7.450;2023-07-16T02:42:54;19.00;36.00
19292;DHT22;9779;51.756;7.450;2023-07-16T02:45:19;18.90;36.10
19292;DHT22;9779;51.756;7.450;2023-07-16T02:47:45;19.00;31.20
19292;DHT22;9779;51.756;7.450;2023-07-16T02:50:11;18.90;33.10
19292;DHT22;9779;51.756;7.450;2023-07-16T02:52:36;18.90;35.00
19292;DHT22;9779;51.756;7.450;2023-07-16T02:55:02;18.90;37.30
19292;DHT22;9779;51.756;7.450;2023-07-16T02:57:28;18.90;23.10
19292;DHT22;9779;51.756;7.450;2023-07-16T02:59:54;18.90;38.40
19292;DHT22;9779;51.756;7.450;2023-07-16T03:02:19;18.90;24.00
19292;DHT22;9779;51.756;7.450;2023-07-16T03:04:45;18.80;34.20
19292;DHT22;9779;51.756;7.450;2023-07-16T03:07:10;18.80;20.90
19292;DHT22;9779;51.756;7.450;2023-07-16T03:09:36;18.80;46.10
19292;DHT22;9779;51.756;7.450;2023-07-16T03:12:02;18.80;18.80
19292;DHT22;9779;51.756;7.450;2023-07-16T03:14:27;18.90;14.80
19292;DHT22;9779;51.756;7.450;2023-07-16T03:16:53;18.80;11.20
19292;DHT22;9779;51.756;7.450;2023-07-16T03:19:18;18.80;14.60
19292;DHT22;9779;51.756;7.450;2023-07-16T03:21:44;18.80;20.10
19292;DHT22;9779;51.756;7.450;2023-07-16T03:24:11;18.80;13.70
19292;DHT22;9779;51.756;7.450;2023-07-16T03:26:37;18.70;13.70
19292;DHT22;9779;51.756;7.450;2023-07-16T03:29:03;18.70;22.70
19292;DHT22;9779;51.756;7.450;2023-07-16T03:31:28;18.70;18.20
19292;DHT22;9779;51.756;7.450;2023-07-16T03:33:54;18.70;23.30
19292;DHT22;9779;51.756;7.450;2023-07-16T03:36:20;18.70;17.30
19292;DHT22;9779;51.756;7.450;2023-07-16T03:38:45;18.70;19.90
19292;DHT22;9779;51.756;7.450;2023-07-16T03:41:11;18.60;15.20
19292;DHT22;9779;51.756;7.450;2023-07-16T03:43:37;18.60;26.40
19292;DHT22;9779;51.756;7.450;2023-07-16T03:46:02;18.60;20.70
19292;DHT22;9779;51.756;7.450;2023-07-16T03:48:28;18.60;15.30
19292;DHT22;9779;51.756;7.450;2023-07-16T03:50:54;18.60;8.70
19292;DHT22;9779;51.756;7.450;2023-07-16T03:53:19;18.60;24.20
19292;DHT22;9779;51.756;7.450;2023-07-16T03:55:45;18.60;26.10
19292;DHT22;9779;51.756;7.450;2023-07-16T03:58:10;18.60;20.20
19292;DHT22;9779;51.756;7.450;2023-07-16T04:00:41;18.40;60.80
19292;DHT22;9779;51.756;7.450;2023-07-16T04:03:06;18.60;61.90
19292;DHT22;9779;51.756;7.450;2023-07-16T04:05:32;18.50;56.50
19292;DHT22;9779;51.756;7.450;2023-07-16T04:07:57;18.60;72.30
19292;DHT22;9779;51.756;7.450;2023-07-16T04:10:23;18.50;77.40
19292;DHT22;9779;51.756;7.450;2023-07-16T04:12:49;18.50;74.70
19292;DHT22;9779;51.756;7.450;2023-07-16T04:15:14;18.50;63.60
19292;DHT22;9779;51.756;7.450;2023-07-16T04:17:40;18.50;43.60
19292;DHT22;9779;51.756;7.450;2023-07-16T04:20:06;18.50;1.00
19292;DHT22;9779;51.756;7.450;2023-07-16T04:22:34;18.40;1.00
19292;DHT22;9779;51.756;7.450;2023-07-16T04:24:59;18.50;1.00
19292;DHT22;9779;51.756;7.450;2023-07-16T04:27:25;18.40;1.00
19292;DHT22;9779;51.756;7.450;2023-07-16T04:29:51;18.50;1.00
19292;DHT22;9779;51.756;7.450;2023-07-16T04:32:16;18.50;1.00
19292;DHT22;9779;51.756;7.450;2023-07-16T04:34:42;18.40;1.00
19292;DHT22;9779;51.756;7.450;2023-07-16T04:37:07;18.40;1.00
19292;DHT22;9779;51.756;7.450;2023-07-16T04:39:33;18.40;1.00
19292;DHT22;9779;51.756;7.450;2023-07-16T04:41:59;18.40;1.00
19292;DHT22;9779;51.756;7.450;2023-07-16T04:44:24;18.30;1.00
19292;DHT22;9779;51.756;7.450;2023-07-16T04:46:50;18.40;1.00
19292;DHT22;9779;51.756;7.450;2023-07-16T04:49:15;18.40;99.90
19292;DHT22;9779;51.756;7.450;2023-07-16T04:51:41;18.40;99.90
19292;DHT22;9779;51.756;7.450;2023-07-16T04:54:07;18.20;99.90
19292;DHT22;9779;51.756;7.450;2023-07-16T04:56:32;18.40;1.00
19292;DHT22;9779;51.756;7.450;2023-07-16T04:58:58;18.40;1.00
19292;DHT22;9779;51.756;7.450;2023-07-16T05:01:23;18.30;1.00
19292;DHT22;9779;51.756;7.450;2023-07-16T05:03:50;18.30;1.00
19292;DHT22;9779;51.756;7.450;2023-07-16T05:06:16;18.50;1.00
19292;DHT22;9779;51.756;7.450;2023-07-16T05:08:41;18.30;1.00
19292;DHT22;9779;51.756;7.450;2023-07-16T05:11:07;18.40;1.00
19292;DHT22;9779;51.756;7.450;2023-07-16T05:13:32;18.40;1.00
19292;DHT22;9779;51.756;7.450;2023-07-16T05:15:58;18.20;1.00
19292;DHT22;9779;51.756;7.450;2023-07-16T05:18:24;18.30;99.90
19292;DHT22;9779;51.756;7.450;2023-07-16T05:20:49;18.50;1.00
19292;DHT22;9779;51.756;7.450;2023-07-16T05:23:17;18.30;1.00
19292;DHT22;9779;51.756;7.450;2023-07-16T05:25:47;18.30;1.00
19292;DHT22;9779;51.756;7.450;2023-07-16T05:28:14;18.30;1.00
19292;DHT22;9779;51.756;7.450;2023-07-16T05:30:39;18.30;1.00
19292;DHT22;9779;51.756;7.450;2023-07-16T05:33:05;18.30;1.00
19292;DHT22;9779;51.756;7.450;2023-07-16T05:35:31;18.50;1.00
19292;DHT22;9779;51.756;7.450;2023-07-16T05:37:56;18.40;1.00
19292;DHT22;9779;51.756;7.450;2023-07-16T05:40:22;18.40;1.00
19292;DHT22;9779;51.756;7.450;2023-07-16T05:42:47;18.30;1.00
19292;DHT22;9779;51.756;7.450;2023-07-16T05:45:13;18.40;1.00
19292;DHT22;9779;51.756;7.450;2023-07-16T05:47:39;18.40;1.00
19292;DHT22;9779;51.756;7.450;2023-07-16T05:50:05;18.60;99.90
19292;DHT22;9779;51.756;7.450;2023-07-16T05:52:31;18.50;99.90
19292;DHT22;9779;51.756;7.450;2023-07-16T05:54:57;18.50;1.00
19292;DHT22;9779;51.756;7.450;2023-07-16T05:57:22;18.60;1.00
19292;DHT22;9779;51.756;7.450;2023-07-16T05:59:48;18.50;1.00
19292;DHT22;9779;51.756;7.450;2023-07-16T06:02:14;18.50;99.90
19292;DHT22;9779;51.756;7.450;2023-07-16T06:04:39;18.40;99.90
19292;DHT22;9779;51.756;7.450;2023-07-16T06:07:05;18.40;99.90
19292;DHT22;9779;51.756;7.450;2023-07-16T06:09:31;18.50;1.00
19292;DHT22;9779;51.756;7.450;2023-07-16T06:11:57;18.60;1.00
19292;DHT22;9779;51.756;7.450;2023-07-16T06:14:22;18.50;1.00
19292;DHT22;9779;51.756;7.450;2023-07-16T06:16:48;18.60;94.50
19292;DHT22;9779;51.756;7.450;2023-07-16T06:19:14;18.60;99.90
19292;DHT22;9779;51.756;7.450;2023-07-16T06:21:39;18.60;99.90
19292;DHT22;9779;51.756;7.450;2023-07-16T06:24:05;18.60;99.90
19292;DHT22;9779;51.756;7.450;2023-07-16T06:26:31;18.60;1.00
19292;DHT22;9779;51.756;7.450;2023-07-16T06:28:59;18.60;99.90
19292;DHT22;9779;51.756;7.450;2023-07-16T06:31:25;18.60;1.00
19292;DHT22;9779;51.756;7.450;2023-07-16T06:33:50;18.60;99.90
19292;DHT22;9779;51.756;7.450;2023-07-16T06:36:16;18.80;99.90
19292;DHT22;9779;51.756;7.450;2023-07-16T06:38:42;18.80;1.00
19292;DHT22;9779;51.756;7.450;2023-07-16T06:41:07;18.70;99.90
19292;DHT22;9779;51.756;7.450;2023-07-16T06:43:33;18.90;1.00
19292;DHT22;9779;51.756;7.450;2023-07-16T06:45:59;18.80;1.00
19292;DHT22;9779;51.756;7.450;2023-07-16T06:48:24;19.00;1.00
19292;DHT22;9779;51.756;7.450;2023-07-16T06:50:50;18.90;1.00
19292;DHT22;9779;51.756;7.450;2023-07-16T06:53:16;19.10;1.00
19292;DHT22;9779;51.756;7.450;2023-07-16T06:55:42;18.90;1.00
19292;DHT22;9779;51.756;7.450;2023-07-16T06:58:13;18.90;5.50
19292;DHT22;9779;51.756;7.450;2023-07-16T07:00:38;19.10;1.00
19292;DHT22;9779;51.756;7.450;2023-07-16T07:03:04;19.00;99.90
19292;DHT22;9779;51.756;7.450;2023-07-16T07:05:30;19.10;1.00
19292;DHT22;9779;51.756;7.450;2023-07-16T07:07:55;19.10;1.00
19292;DHT22;9779;51.756;7.450;2023-07-16T07:10:22;19.10;99.90
19292;DHT22;9779;51.756;7.450;2023-07-16T07:12:48;19.10;99.90
19292;DHT22;9779;51.756;7.450;2023-07-16T07:15:13;19.20;1.00
19292;DHT22;9779;51.756;7.450;2023-07-16T07:17:39;19.20;99.90
19292;DHT22;9779;51.756;7.450;2023-07-16T07:20:06;19.30;99.90
19292;DHT22;9779;51.756;7.450;2023-07-16T07:22:32;19.50;99.90
19292;DHT22;9779;51.756;7.450;2023-07-16T07:24:58;19.50;99.90
19292;DHT22;9779;51.756;7.450;2023-07-16T07:27:23;19.60;1.00
19292;DHT22;9779;51.756;7.450;2023-07-16T07:29:49;19.50;1.00
19292;DHT22;9779;51.756;7.450;2023-07-16T07:32:21;19.50;1.00
19292;DHT22;9779;51.756;7.450;2023-07-16T07:34:47;19.60;1.00
19292;DHT22;9779;51.756;7.450;2023-07-16T07:37:13;19.60;1.00
19292;DHT22;9779;51.756;7.450;2023-07-16T07:39:39;19.70;1.00
19292;DHT22;9779;51.756;7.450;2023-07-16T07:42:05;19.60;1.00
19292;DHT22;9779;51.756;7.450;2023-07-16T07:44:31;19.70;1.00
19292;DHT22;9779;51.756;7.450;2023-07-16T07:46:57;19.80;1.00
19292;DHT22;9779;51.756;7.450;2023-07-16T07:49:23;19.70;1.00
19292;DHT22;9779;51.756;7.450;2023-07-16T07:51:48;19.90;92.60
19292;DHT22;9779;51.756;7.450;2023-07-16T07:54:15;19.80;99.90
19292;DHT22;9779;51.756;7.450;2023-07-16T07:56:41;19.80;99.90
19292;DHT22;9779;51.756;7.450;2023-07-16T07:59:06;19.80;85.40
19292;DHT22;9779;51.756;7.450;2023-07-16T08:01:32;19.50;99.90
19292;DHT22;9779;51.756;7.450;2023-07-16T08:03:57;19.80;97.10
19292;DHT22;9779;51.756;7.450;2023-07-16T08:06:23;19.80;1.00
19292;DHT22;9779;51.756;7.450;2023-07-16T08:08:49;19.80;1.00
19292;DHT22;9779;51.756;7.450;2023-07-16T08:11:14;19.70;1.00
19292;DHT22;9779;51.756;7.450;2023-07-16T08:13:40;19.70;1.00
19292;DHT22;9779;51.756;7.450;2023-07-16T08:16:05;19.80;1.00
19292;DHT22;9779;51.756;7.450;2023-07-16T08:18:31;20.00;99.90
19292;DHT22;9779;51.756;7.450;2023-07-16T08:20:57;19.90;99.90
19292;DHT22;9779;51.756;7.450;2023-07-16T08:23:22;20.00;99.90
19292;DHT22;9779;51.756;7.450;2023-07-16T08:25:48;19.80;1.00
19292;DHT22;9779;51.756;7.450;2023-07-16T08:28:15;19.90;1.00
19292;DHT22;9779;51.756;7.450;2023-07-16T08:30:41;20.00;1.00
19292;DHT22;9779;51.756;7.450;2023-07-16T08:33:07;20.00;1.00
19292;DHT22;9779;51.756;7.450;2023-07-16T08:35:32;20.00;99.90
19292;DHT22;9779;51.756;7.450;2023-07-16T08:38:00;20.10;1.00
19292;DHT22;9779;51.756;7.450;2023-07-16T08:40:26;20.10;99.90
19292;DHT22;9779;51.756;7.450;2023-07-16T08:42:53;20.20;99.90
19292;DHT22;9779;51.756;7.450;2023-07-16T08:45:21;20.40;99.90
19292;DHT22;9779;51.756;7.450;2023-07-16T08:47:48;20.50;10.80
19292;DHT22;9779;51.756;7.450;2023-07-16T08:50:14;20.60;1.00
19292;DHT22;9779;51.756;7.450;2023-07-16T08:52:39;20.60;1.00
19292;DHT22;9779;51.756;7.450;2023-07-16T08:55:06;20.50;1.00
19292;DHT22;9779;51.756;7.450;2023-07-16T08:57:32;20.60;99.90
19292;DHT22;9779;51.756;7.450;2023-07-16T08:59:58;20.30;99.90
19292;DHT22;9779;51.756;7.450;2023-07-16T09:02:24;20.70;99.90
19292;DHT22;9779;51.756;7.450;2023-07-16T09:04:50;20.50;99.90
19292;DHT22;9779;51.756;7.450;2023-07-16T09:07:18;20.50;99.90
19292;DHT22;9779;51.756;7.450;2023-07-16T09:09:55;20.60;29.00
19292;DHT22;9779;51.756;7.450;2023-07-16T09:12:24;20.50;2.50
19292;DHT22;9779;51.756;7.450;2023-07-16T09:14:49;20.60;1.00
19292;DHT22;9779;51.756;7.450;2023-07-16T09:17:21;21.00;1.00
19292;DHT22;9779;51.756;7.450;2023-07-16T09:19:47;20.90;92.80
19292;DHT22;9779;51.756;7.450;2023-07-16T09:22:13;21.00;99.90
19292;DHT22;9779;51.756;7.450;2023-07-16T09:24:39;21.10;99.90
19292;DHT22;9779;51.756;7.450;2023-07-16T09:27:04;21.20;99.90
19292;DHT22;9779;51.756;7.450;2023-07-16T09:29:30;21.40;99.90
19292;DHT22;9779;51.756;7.450;2023-07-16T09:31:58;21.30;1.00
19292;DHT22;9779;51.756;7.450;2023-07-16T09:34:27;21.50;99.90
19292;DHT22;9779;51.756;7.450;2023-07-16T09:36:52;21.60;26.80
19292;DHT22;9779;51.756;7.450;2023-07-16T11:46:35;22.80;99.90
19292;DHT22;9779;51.756;7.450;2023-07-16T11:49:01;22.60;1.00
19292;DHT22;9779;51.756;7.450;2023-07-16T11:51:26;22.60;1.00
19292;DHT22;9779;51.756;7.450;2023-07-16T11:53:53;22.60;1.00
19292;DHT22;9779;51.756;7.450;2023-07-16T11:56:19;22.70;99.90
19292;DHT22;9779;51.756;7.450;2023-07-16T11:58:45;22.60;99.90
19292;DHT22;9779;51.756;7.450;2023-07-16T12:01:11;22.70;99.90
19292;DHT22;9779;51.756;7.450;2023-07-16T12:03:40;22.60;99.90
19292;DHT22;9779;51.756;7.450;2023-07-16T12:06:05;22.90;99.90
19292;DHT22;9779;51.756;7.450;2023-07-16T12:08:31;22.80;99.90
19292;DHT22;9779;51.756;7.450;2023-07-16T12:10:56;23.00;99.90
19292;DHT22;9779;51.756;7.450;2023-07-16T12:13:22;23.00;99.90
19292;DHT22;9779;51.756;7.450;2023-07-16T12:15:50;23.20;99.90
19292;DHT22;9779;51.756;7.450;2023-07-16T12:18:15;23.40;99.90
19292;DHT22;9779;51.756;7.450;2023-07-16T12:20:41;23.30;99.90
19292;DHT22;9779;51.756;7.450;2023-07-16T12:23:07;23.30;99.90
19292;DHT22;9779;51.756;7.450;2023-07-16T12:25:32;23.30;99.90
19292;DHT22;9779;51.756;7.450;2023-07-16T12:27:59;23.20;99.90
19292;DHT22;9779;51.756;7.450;2023-07-16T12:30:26;23.10;99.90
19292;DHT22;9779;51.756;7.450;2023-07-16T12:32:51;23.00;99.90
19292;DHT22;9779;51.756;7.450;2023-07-16T12:35:17;23.20;99.90
19292;DHT22;9779;51.756;7.450;2023-07-16T12:37:42;22.90;99.90
19292;DHT22;9779;51.756;7.450;2023-07-16T12:40:08;23.20;99.90
19292;DHT22;9779;51.756;7.450;2023-07-16T12:42:34;23.00;99.90
19292;DHT22;9779;51.756;7.450;2023-07-16T12:45:01;23.30;99.90
19292;DHT22;9779;51.756;7.450;2023-07-16T12:47:27;23.20;99.90
19292;DHT22;9779;51.756;7.450;2023-07-16T12:49:55;23.10;99.90
19292;DHT22;9779;51.756;7.450;2023-07-16T12:52:20;23.20;99.90
19292;DHT22;9779;51.756;7.450;2023-07-16T12:54:46;23.10;99.90
19292;DHT22;9779;51.756;7.450;2023-07-16T12:57:12;23.10;99.90
19292;DHT22;9779;51.756;7.450;2023-07-16T12:59:37;23.00;99.90
19292;DHT22;9779;51.756;7.450;2023-07-16T13:02:03;23.10;99.90
19292;DHT22;9779;51.756;7.450;2023-07-16T13:04:29;23.00;99.90
19292;DHT22;9779;51.756;7.450;2023-07-16T13:06:54;23.10;99.90
19292;DHT22;9779;51.756;7.450;2023-07-16T13:09:20;22.70;99.90
19292;DHT22;9779;51.756;7.450;2023-07-16T13:14:12;22.70;99.90
19292;DHT22;9779;51.756;7.450;2023-07-16T13:16:37;23.10;99.90
19292;DHT22;9779;51.756;7.450;2023-07-16T13:19:03;23.00;99.90
19292;DHT22;9779;51.756;7.450;2023-07-16T13:36:29;23.80;99.90
19292;DHT22;9779;51.756;7.450;2023-07-16T13:38:55;23.90;99.90
19292;DHT22;9779;51.756;7.450;2023-07-16T13:41:21;23.90;99.90
19292;DHT22;9779;51.756;7.450;2023-07-16T13:43:46;24.40;99.90
19292;DHT22;9779;51.756;7.450;2023-07-16T13:46:12;24.50;99.90
19292;DHT22;9779;51.756;7.450;2023-07-16T13:56:06;25.00;99.90
19292;DHT22;9779;51.756;7.450;2023-07-16T13:58:31;25.40;99.90
19292;DHT22;9779;51.756;7.450;2023-07-16T14:00:57;25.50;99.90
19292;DHT22;9779;51.756;7.450;2023-07-16T14:03:22;25.40;77.20
19292;DHT22;9779;51.756;7.450;2023-07-16T14:05:51;25.60;93.40
19292;DHT22;9779;51.756;7.450;2023-07-16T14:08:16;25.60;84.00
19292;DHT22;9779;51.756;7.450;2023-07-16T14:10:42;25.70;43.40
19292;DHT22;9779;51.756;7.450;2023-07-16T14:13:11;25.90;65.80
19292;DHT22;9779;51.756;7.450;2023-07-16T14:15:38;25.50;1.00
19292;DHT22;9779;51.756;7.450;2023-07-16T14:18:03;25.00;1.00
19292;DHT22;9779;51.756;7.450;2023-07-16T14:20:29;25.00;4.30
19292;DHT22;9779;51.756;7.450;2023-07-16T14:22:55;24.90;9.20
19292;DHT22;9779;51.756;7.450;2023-07-16T14:25:20;24.90;44.60
19292;DHT22;9779;51.756;7.450;2023-07-16T14:27:46;25.00;63.80
19292;DHT22;9779;51.756;7.450;2023-07-16T14:30:13;25.20;91.30
19292;DHT22;9779;51.756;7.450;2023-07-16T14:32:39;25.60;86.30
19292;DHT22;9779;51.756;7.450;2023-07-16T14:35:04;25.90;24.20
19292;DHT22;9779;51.756;7.450;2023-07-16T14:37:30;26.10;1.00
19292;DHT22;9779;51.756;7.450;2023-07-16T14:39:58;26.20;1.00
19292;DHT22;9779;51.756;7.450;2023-07-16T14:42:23;26.30;1.00
19292;DHT22;9779;51.756;7.450;2023-07-16T14:44:49;26.60;1.00
19292;DHT22;9779;51.756;7.450;2023-07-16T14:47:15;26.60;1.00
19292;DHT22;9779;51.756;7.450;2023-07-16T14:49:41;26.70;1.00
19292;DHT22;9779;51.756;7.450;2023-07-16T14:52:07;26.70;1.00
19292;DHT22;9779;51.756;7.450;2023-07-16T14:54:33;26.40;1.00
19292;DHT22;9779;51.756;7.450;2023-07-16T14:57:01;26.40;1.00
19292;DHT22;9779;51.756;7.450;2023-07-16T14:59:28;26.70;1.00
19292;DHT22;9779;51.756;7.450;2023-07-16T15:01:54;26.60;1.00
19292;DHT22;9779;51.756;7.450;2023-07-16T15:04:19;26.60;1.00
19292;DHT22;9779;51.756;7.450;2023-07-16T15:23:54;26.90;1.00
19292;DHT22;9779;51.756;7.450;2023-07-16T15:26:20;26.70;1.00
19292;DHT22;9779;51.756;7.450;2023-07-16T15:28:46;26.60;1.00
19292;DHT22;9779;51.756;7.450;2023-07-16T15:31:11;26.60;1.00
19292;DHT22;9779;51.756;7.450;2023-07-16T15:33:37;26.80;1.00
19292;DHT22;9779;51.756;7.450;2023-07-16T15:36:03;26.60;1.00
19292;DHT22;9779;51.756;7.450;2023-07-16T15:38:29;26.20;1.00
19292;DHT22;9779;51.756;7.450;2023-07-16T15:40:55;26.00;1.00
19292;DHT22;9779;51.756;7.450;2023-07-16T15:43:21;25.80;1.00
19292;DHT22;9779;51.756;7.450;2023-07-16T15:45:47;25.80;1.00
19292;DHT22;9779;51.756;7.450;2023-07-16T15:48:13;25.90;1.00
19292;DHT22;9779;51.756;7.450;2023-07-16T15:50:38;25.90;1.00
19292;DHT22;9779;51.756;7.450;2023-07-16T15:53:05;25.70;1.00
19292;DHT22;9779;51.756;7.450;2023-07-16T15:55:33;25.60;1.00
19292;DHT22;9779;51.756;7.450;2023-07-16T15:57:58;25.50;1.00
19292;DHT22;9779;51.756;7.450;2023-07-16T16:00:25;25.40;1.00
19292;DHT22;9779;51.756;7.450;2023-07-16T16:02:52;25.20;1.00
19292;DHT22;9779;51.756;7.450;2023-07-16T16:05:20;25.20;1.00
19292;DHT22;9779;51.756;7.450;2023-07-16T16:08:09;25.10;1.00
19292;DHT22;9779;51.756;7.450;2023-07-16T16:10:35;25.20;1.00
19292;DHT22;9779;51.756;7.450;2023-07-16T16:13:01;25.20;1.00
19292;DHT22;9779;51.756;7.450;2023-07-16T16:15:26;25.20;1.00
19292;DHT22;9779;51.756;7.450;2023-07-16T16:17:52;25.30;1.00
19292;DHT22;9779;51.756;7.450;2023-07-16T16:20:17;25.40;1.00
19292;DHT22;9779;51.756;7.450;2023-07-16T16:22:43;25.40;1.00
19292;DHT22;9779;51.756;7.450;2023-07-16T16:25:09;25.30;1.00
19292;DHT22;9779;51.756;7.450;2023-07-16T16:27:34;25.30;1.00
19292;DHT22;9779;51.756;7.450;2023-07-16T16:30:00;25.20;1.00
19292;DHT22;9779;51.756;7.450;2023-07-16T16:32:26;25.10;1.00
19292;DHT22;9779;51.756;7.450;2023-07-16T16:34:52;25.10;1.00
19292;DHT22;9779;51.756;7.450;2023-07-16T16:37:18;25.10;1.00
19292;DHT22;9779;51.756;7.450;2023-07-16T16:39:44;25.30;1.00
19292;DHT22;9779;51.756;7.450;2023-07-16T16:42:10;25.40;1.00
19292;DHT22;9779;51.756;7.450;2023-07-16T16:44:35;25.30;1.00
19292;DHT22;9779;51.756;7.450;2023-07-16T16:47:01;25.30;1.00
19292;DHT22;9779;51.756;7.450;2023-07-16T16:49:26;25.30;1.00
19292;DHT22;9779;51.756;7.450;2023-07-16T16:51:52;25.30;1.00
19292;DHT22;9779;51.756;7.450;2023-07-16T16:54:18;25.40;1.00
19292;DHT22;9779;51.756;7.450;2023-07-16T16:56:43;25.60;1.00
19292;DHT22;9779;51.756;7.450;2023-07-16T16:59:09;25.70;1.00
19292;DHT22;9779;51.756;7.450;2023-07-16T17:01:34;25.60;1.00
19292;DHT22;9779;51.756;7.450;2023-07-16T17:04:00;25.40;1.00
19292;DHT22;9779;51.756;7.450;2023-07-16T17:06:26;25.40;1.00
19292;DHT22;9779;51.756;7.450;2023-07-16T17:08:51;25.20;1.00
19292;DHT22;9779;51.756;7.450;2023-07-16T17:11:17;25.10;1.00
19292;DHT22;9779;51.756;7.450;2023-07-16T17:13:43;25.00;1.00
19292;DHT22;9779;51.756;7.450;2023-07-16T17:16:08;25.00;1.00
19292;DHT22;9779;51.756;7.450;2023-07-16T17:18:36;24.90;1.00
19292;DHT22;9779;51.756;7.450;2023-07-16T17:21:02;24.90;1.00
19292;DHT22;9779;51.756;7.450;2023-07-16T17:23:28;24.90;1.00
19292;DHT22;9779;51.756;7.450;2023-07-16T17:25:54;24.80;1.00
19292;DHT22;9779;51.756;7.450;2023-07-16T17:28:19;24.80;1.00
19292;DHT22;9779;51.756;7.450;2023-07-16T17:30:45;24.80;1.00
19292;DHT22;9779;51.756;7.450;2023-07-16T17:33:11;24.70;1.00
19292;DHT22;9779;51.756;7.450;2023-07-16T17:35:37;24.60;1.00
19292;DHT22;9779;51.756;7.450;2023-07-16T17:38:03;24.70;1.00
19292;DHT22;9779;51.756;7.450;2023-07-16T17:40:29;24.60;1.00
19292;DHT22;9779;51.756;7.450;2023-07-16T17:42:54;24.50;1.00
19292;DHT22;9779;51.756;7.450;2023-07-16T17:45:20;24.50;1.00
19292;DHT22;9779;51.756;7.450;2023-07-16T17:47:46;24.40;1.00
19292;DHT22;9779;51.756;7.450;2023-07-16T17:50:12;24.40;1.00
19292;DHT22;9779;51.756;7.450;2023-07-16T17:52:37;24.40;1.00
19292;DHT22;9779;51.756;7.450;2023-07-16T17:57:30;24.20;1.00
19292;DHT22;9779;51.756;7.450;2023-07-16T17:59:55;24.10;1.00
19292;DHT22;9779;51.756;7.450;2023-07-16T18:02:21;24.00;1.00
19292;DHT22;9779;51.756;7.450;2023-07-16T18:04:47;23.90;1.00
19292;DHT22;9779;51.756;7.450;2023-07-16T18:07:12;23.80;1.00
19292;DHT22;9779;51.756;7.450;2023-07-16T18:09:38;23.60;1.00
19292;DHT22;9779;51.756;7.450;2023-07-16T18:12:04;23.50;1.00
19292;DHT22;9779;51.756;7.450;2023-07-16T18:14:30;23.60;1.00
19292;DHT22;9779;51.756;7.450;2023-07-16T18:16:55;23.50;1.00
19292;DHT22;9779;51.756;7.450;2023-07-16T18:19:21;23.50;1.00
19292;DHT22;9779;51.756;7.450;2023-07-16T18:21:47;23.50;1.00
19292;DHT22;9779;51.756;7.450;2023-07-16T18:24:12;23.40;1.00
19292;DHT22;9779;51.756;7.450;2023-07-16T18:26:38;23.30;1.00
19292;DHT22;9779;51.756;7.450;2023-07-16T18:29:04;23.30;1.00
19292;DHT22;9779;51.756;7.450;2023-07-16T18:31:31;23.30;1.00
19292;DHT22;9779;51.756;7.450;2023-07-16T18:33:57;23.30;1.00
19292;DHT22;9779;51.756;7.450;2023-07-16T18:36:22;23.30;1.00
19292;DHT22;9779;51.756;7.450;2023-07-16T18:38:48;23.30;1.00
19292;DHT22;9779;51.756;7.450;2023-07-16T18:41:14;23.30;1.00
19292;DHT22;9779;51.756;7.450;2023-07-16T19:17:58;22.70;99.90
19292;DHT22;9779;51.756;7.450;2023-07-16T19:20:24;22.50;99.90
19292;DHT22;9779;51.756;7.450;2023-07-16T19:22:50;22.40;1.00
19292;DHT22;9779;51.756;7.450;2023-07-16T19:25:16;22.40;1.00
19292;DHT22;9779;51.756;7.450;2023-07-16T19:27:43;22.30;89.00
19292;DHT22;9779;51.756;7.450;2023-07-16T19:30:12;22.20;99.90
19292;DHT22;9779;51.756;7.450;2023-07-16T19:32:37;22.20;99.90
19292;DHT22;9779;51.756;7.450;2023-07-16T19:35:03;22.20;1.00
19292;DHT22;9779;51.756;7.450;2023-07-16T19:37:30;22.20;1.00
19292;DHT22;9779;51.756;7.450;2023-07-16T19:40:00;22.20;1.00
19292;DHT22;9779;51.756;7.450;2023-07-16T19:42:32;22.20;1.00
19292;DHT22;9779;51.756;7.450;2023-07-16T19:44:58;22.10;1.00
19292;DHT22;9779;51.756;7.450;2023-07-16T19:47:24;22.10;99.90
19292;DHT22;9779;51.756;7.450;2023-07-16T19:49:49;22.00;99.90
19292;DHT22;9779;51.756;7.450;2023-07-16T19:52:15;22.00;99.90
19292;DHT22;9779;51.756;7.450;2023-07-16T19:54:41;22.00;1.00
19292;DHT22;9779;51.756;7.450;2023-07-16T19:57:06;22.00;1.00
19292;DHT22;9779;51.756;7.450;2023-07-16T19:59:32;22.00;99.90
19292;DHT22;9779;51.756;7.450;2023-07-16T20:01:58;21.90;1.00